Broken Bow Municipal Airport

About
Name: Broken Bow Municipal Airport
Identifier:  BBW/KBBW
Serves:  Broken Bow, Nebraska
Owner:  Broken Bow Airport Authority
Public/Private:  Public
Local Time:  22. Sep 08:02 CDT
Description: Broken Bow Municipal Airport, also known as Keith Glaze Field, is a public use airport located two nautical miles north of the central business district of Broken Bow, a city in Custer County, Nebraska, United States. It is owned by the Broken Bow Airport Authority. This airport is included in the National Plan of Integrated Airport Systems for 2011–2015, which categorized it as a general aviation facility.
Source: Wikipedia
Location
Runways
Identifier Length (m/ft) Surface
14/32 4,203/4,203 Concrete
Statistics
Flights per Day:
0 flights
Distance: 218km (135mi)
Flights delayed:
50% (0 flights per day delayed)
Delay Average: 59 minutes
Current Weather
 12 C (Humidity: 93%)
  4kt (7km/h / 4mph) from 120°
  Broken clouds at 9,500 feet (2,895 meter)
  Overcast at 11,000 feet (3,352 meter)
  16km (10 mi.)
 METAR KBBW 221153Z AUTO 12004KT 10SM BKN095 OVC110 12/11 A2995 RMK AO2 RAB27E38 SLP128 P0000 60024 70024 T01170111 10156 20117 58027

Current Delays

Departures
N/A
Arrivals
N/A

Destinations

Top Destinations
Airport Flights
per week
Seats
per week
  Omaha (OMA) 0 - 0 0

Airlines & Planes

Top Airlines
Airline Flights
per Day
Seats
per Day
  Ameriflight 0 -
Top Plane Types
Model Flights Seats
Beech C-99 Airliner 0.0/day - 0